Accueil
METAR-TAF:

METAR-TAF

Aéroports :

Aéroport de Jersey

Jersey,

latitude: 49-13N, longitude: 002-12W, altitude: 84 m

Observation

Le bulletin a été fait il y a 16 minutes, à 20:50 UTC
Vent 4 kt de sud/sud-ouest, variant entre sud/sud-est et sud-ouest
Température 14°C
Humidité 82%
Pression 1029 hPa
Visibilité 10 km ou plus
Quelques nuages à une hauteur de 3600 ft

METAR: EGJJ 062050Z 20004KT 160V230 9999 FEW036 14/11 Q1029

Heure: 22:06 (21:06 UTC)

Prévision

Le bulletin a été fait il y a 1 heure et 11 minutes, à 19:55 UTC
Prévision valable du 06 à 21 UTC au 07 à 06 UTC
Vent 5 kt de ouest/sud-ouest
Visibilité 10 km ou plus
Quelques nuages à une hauteur de 1500 ft

TAF: EGJJ 061955Z 0621/0706 24005KT 9999 FEW015

Observations et prévisions météorologiques de plus de 4000 aéroports (messages METAR et TAF).

Les stations disponibles sont représentées par des disques jaunes et rouges sur la carte.

Passer la souris dessus pour voir le nom de la station.

Cliquer dessus pour voir les observations et prévisions météorologiques.

Pour changer de carte: cliquez sur les boutons verts avec une croix noire pour zoomer, sur le bouton vert avec un tiret pour effectuer un zoom arrière, ou sur les flèches vertes pour les cartes adjacentes.


METAR-TAF: